createdAt,value
2022-11-24T00:00:12.534Z,4.97
2022-11-24T00:01:21.381Z,4.90
2022-11-24T00:02:24.140Z,4.55
2022-11-24T00:03:27.161Z,4.93
2022-11-24T00:04:29.819Z,4.90
2022-11-24T00:05:38.661Z,4.70
2022-11-24T00:06:41.535Z,5.00
2022-11-24T00:07:44.760Z,4.78
2022-11-24T00:08:48.019Z,4.45
2022-11-24T00:09:50.734Z,4.57
2022-11-24T00:10:53.420Z,4.78
2022-11-24T00:11:56.214Z,4.97
2022-11-24T00:12:58.941Z,4.75
2022-11-24T00:14:02.264Z,4.93
2022-11-24T00:15:05.292Z,4.75
2022-11-24T00:16:22.511Z,4.43
2022-11-24T00:17:25.347Z,5.43
2022-11-24T00:18:28.087Z,6.32
2022-11-24T00:19:30.954Z,5.65
2022-11-24T00:20:33.736Z,5.47
2022-11-24T00:21:37.624Z,5.62
2022-11-24T00:22:40.284Z,6.05
2022-11-24T00:23:43.628Z,5.20
2022-11-24T00:24:46.371Z,6.20
2022-11-24T00:25:49.030Z,6.12
2022-11-24T00:26:51.934Z,6.35
2022-11-24T00:27:54.701Z,6.47
2022-11-24T00:29:01.472Z,5.87
2022-11-24T00:30:04.780Z,6.85
2022-11-24T00:31:21.260Z,6.30
2022-11-24T00:32:24.074Z,6.70
2022-11-24T00:33:26.830Z,6.85
2022-11-24T00:34:29.643Z,7.37
2022-11-24T00:35:32.436Z,6.65
2022-11-24T00:36:36.234Z,7.57
2022-11-24T00:37:39.035Z,6.45
2022-11-24T00:38:44.089Z,6.20
2022-11-24T00:39:47.103Z,7.10
2022-11-24T00:40:49.954Z,7.25
2022-11-24T00:41:52.692Z,7.40
2022-11-24T00:42:55.444Z,7.60
2022-11-24T00:43:59.435Z,7.53
2022-11-24T00:45:12.902Z,8.02
2022-11-24T00:46:16.491Z,7.85
2022-11-24T00:47:19.155Z,8.18
2022-11-24T00:48:22.394Z,8.15
2022-11-24T00:49:25.072Z,7.85
2022-11-24T00:50:28.348Z,8.50
2022-11-24T00:51:31.767Z,8.48
2022-11-24T00:52:34.591Z,8.13
2022-11-24T00:53:41.161Z,7.57
2022-11-24T00:54:44.051Z,8.25
2022-11-24T00:55:50.208Z,8.10
2022-11-24T00:56:53.049Z,8.07
2022-11-24T00:57:55.904Z,8.23
2022-11-24T00:58:59.178Z,7.07
2022-11-24T01:00:02.106Z,7.65
2022-11-24T01:01:10.885Z,7.97
2022-11-24T01:02:13.895Z,7.75
2022-11-24T01:03:17.637Z,7.82
2022-11-24T01:04:20.481Z,7.22
2022-11-24T01:05:23.164Z,7.57
2022-11-24T01:06:26.754Z,7.47
2022-11-24T01:07:29.443Z,7.97
2022-11-24T01:08:36.625Z,8.50
2022-11-24T01:09:39.697Z,7.50
2022-11-24T01:10:42.657Z,8.15
2022-11-24T01:12:04.387Z,8.45
2022-11-24T01:13:07.459Z,8.48
2022-11-24T01:14:10.391Z,8.45
2022-11-24T01:15:13.062Z,8.27
2022-11-24T01:16:30.494Z,9.30
2022-11-24T01:17:33.190Z,8.98
2022-11-24T01:18:36.334Z,9.18
2022-11-24T01:19:38.923Z,8.55
2022-11-24T01:20:41.867Z,9.18
2022-11-24T01:21:44.782Z,9.10
2022-11-24T01:22:49.092Z,8.93
2022-11-24T01:23:51.838Z,9.35
2022-11-24T01:24:54.549Z,10.73
2022-11-24T01:25:57.257Z,10.10
2022-11-24T01:26:59.889Z,10.38
2022-11-24T01:28:02.656Z,10.52
2022-11-24T01:29:05.787Z,10.30
2022-11-24T01:30:09.211Z,10.32
2022-11-24T01:31:12.113Z,11.05
2022-11-24T01:32:14.855Z,11.15
2022-11-24T01:33:17.544Z,10.10
2022-11-24T01:34:20.286Z,11.25
2022-11-24T01:35:22.931Z,12.25
2022-11-24T01:36:26.292Z,10.23
2022-11-24T01:37:29.128Z,10.95
2022-11-24T01:38:32.326Z,12.15
2022-11-24T01:39:35.023Z,10.95
2022-11-24T01:40:37.710Z,10.73
2022-11-24T01:41:40.679Z,11.82
2022-11-24T01:42:48.413Z,11.18
2022-11-24T01:43:52.490Z,11.65
2022-11-24T01:45:35.315Z,12.27
2022-11-24T01:46:47.653Z,11.50
2022-11-24T01:47:50.330Z,11.73
2022-11-24T01:48:57.795Z,11.27
2022-11-24T01:50:03.347Z,12.15
2022-11-24T01:51:33.171Z,11.82
2022-11-24T01:52:43.593Z,12.65
2022-11-24T01:54:01.400Z,12.02
2022-11-24T01:55:12.116Z,12.52
2022-11-24T01:56:15.387Z,12.10
2022-11-24T01:57:24.748Z,12.98
2022-11-24T01:58:32.707Z,13.18
2022-11-24T01:59:35.695Z,13.38
2022-11-24T02:00:41.533Z,13.88
2022-11-24T02:01:44.473Z,13.93
2022-11-24T02:02:47.193Z,14.57
2022-11-24T02:03:50.866Z,14.55
2022-11-24T02:04:54.690Z,15.50
2022-11-24T02:06:00.125Z,14.55
2022-11-24T02:07:06.232Z,15.45
2022-11-24T02:08:26.006Z,14.25
2022-11-24T02:09:35.362Z,13.45
2022-11-24T02:10:38.957Z,14.15
2022-11-24T02:11:43.103Z,16.12
2022-11-24T02:12:48.009Z,15.15
2022-11-24T02:13:53.523Z,15.23
2022-11-24T02:14:56.896Z,14.60
2022-11-24T02:16:00.257Z,15.27
2022-11-24T02:17:03.539Z,15.07
2022-11-24T02:18:06.571Z,15.15
2022-11-24T02:19:24.769Z,14.32
2022-11-24T02:20:27.773Z,14.25
2022-11-24T02:21:30.583Z,16.23
2022-11-24T02:23:21.608Z,16.05
2022-11-24T02:24:39.891Z,14.55
2022-11-24T02:25:56.446Z,14.60
2022-11-24T02:26:59.488Z,14.23
2022-11-24T02:28:07.340Z,13.55
2022-11-24T02:29:12.009Z,13.95
2022-11-24T02:30:15.015Z,13.48
2022-11-24T02:31:18.380Z,15.07
2022-11-24T02:32:21.775Z,15.02
2022-11-24T02:33:25.574Z,16.67
2022-11-24T02:34:28.492Z,15.80
2022-11-24T02:35:32.154Z,15.82
2022-11-24T02:36:35.095Z,16.12
2022-11-24T02:37:38.300Z,17.62
2022-11-24T02:38:41.173Z,15.65
2022-11-24T02:39:43.866Z,16.15
2022-11-24T02:40:50.205Z,15.68
2022-11-24T02:41:59.448Z,17.02
2022-11-24T02:43:09.450Z,16.77
2022-11-24T02:44:15.812Z,17.73
2022-11-24T02:45:18.899Z,16.98
2022-11-24T02:46:21.979Z,18.95
2022-11-24T02:47:27.183Z,17.60
2022-11-24T02:48:30.719Z,18.37
2022-11-24T02:49:34.045Z,18.45
2022-11-24T02:50:37.117Z,18.98
2022-11-24T02:51:39.855Z,18.83
2022-11-24T02:52:42.606Z,19.05
2022-11-24T02:53:45.428Z,19.27
2022-11-24T02:54:48.107Z,19.33
2022-11-24T02:55:50.749Z,20.35
2022-11-24T02:56:53.449Z,20.50
2022-11-24T02:57:56.356Z,19.60
2022-11-24T02:58:59.090Z,19.55
2022-11-24T03:00:01.923Z,18.83
2022-11-24T03:01:04.845Z,20.60
2022-11-24T03:02:07.494Z,20.65
2022-11-24T03:03:10.630Z,20.05
2022-11-24T03:04:13.376Z,20.30
2022-11-24T03:05:16.144Z,20.98
2022-11-24T03:06:18.733Z,19.60
2022-11-24T03:07:23.164Z,20.88
2022-11-24T03:08:25.952Z,20.20
2022-11-24T03:09:28.825Z,18.60
2022-11-24T03:10:31.582Z,18.95
2022-11-24T03:11:34.452Z,20.60
2022-11-24T03:12:37.413Z,19.95
2022-11-24T03:13:40.058Z,20.40
2022-11-24T03:14:42.772Z,20.08
2022-11-24T03:15:45.523Z,19.55
2022-11-24T03:16:48.331Z,20.35
2022-11-24T03:17:51.213Z,20.70
2022-11-24T03:18:54.090Z,19.98
2022-11-24T03:20:02.944Z,20.62
2022-11-24T03:21:07.381Z,19.52
2022-11-24T03:22:10.210Z,21.52
2022-11-24T03:23:12.852Z,21.23
2022-11-24T03:24:15.572Z,20.25
2022-11-24T03:25:18.860Z,19.27
2022-11-24T03:26:23.477Z,20.98
2022-11-24T03:27:26.457Z,21.58
2022-11-24T03:28:29.451Z,21.52
2022-11-24T03:29:32.213Z,22.13
2022-11-24T03:30:35.323Z,22.20
2022-11-24T03:31:38.187Z,20.58
2022-11-24T03:32:45.376Z,21.83
2022-11-24T03:33:48.041Z,22.02
2022-11-24T03:34:50.802Z,21.58
2022-11-24T03:35:53.414Z,22.73
2022-11-24T03:36:56.023Z,22.62
2022-11-24T03:37:58.694Z,23.40
2022-11-24T03:39:01.610Z,22.70
2022-11-24T03:40:04.852Z,21.95
2022-11-24T03:41:07.732Z,23.10
2022-11-24T03:42:10.434Z,21.35
2022-11-24T03:43:13.328Z,22.50
2022-11-24T03:44:15.997Z,23.02
2022-11-24T03:46:42.415Z,21.05
2022-11-24T03:47:45.171Z,21.25
2022-11-24T03:48:47.984Z,21.02
2022-11-24T03:49:50.759Z,20.33
2022-11-24T03:50:59.217Z,20.45
2022-11-24T03:52:07.651Z,21.87
2022-11-24T03:53:11.075Z,20.30
2022-11-24T03:54:13.829Z,19.90
2022-11-24T03:55:16.617Z,20.70
2022-11-24T03:56:19.354Z,20.27
2022-11-24T03:57:22.149Z,21.20
2022-11-24T03:58:25.796Z,19.70
2022-11-24T03:59:28.384Z,20.48
2022-11-24T04:00:31.923Z,20.27
2022-11-24T04:01:35.121Z,21.02
2022-11-24T04:02:38.457Z,20.15
2022-11-24T04:03:41.169Z,20.85
2022-11-24T04:04:48.472Z,20.25
2022-11-24T04:05:52.426Z,19.90
2022-11-24T04:06:55.121Z,19.73
2022-11-24T04:07:58.101Z,21.30
2022-11-24T04:09:01.177Z,20.15
2022-11-24T04:10:04.500Z,19.65
2022-11-24T04:11:07.509Z,21.02
2022-11-24T04:12:29.376Z,19.42
2022-11-24T04:13:32.131Z,18.35
2022-11-24T04:14:35.117Z,20.77
2022-11-24T04:15:40.644Z,19.62
2022-11-24T04:16:43.441Z,19.70
2022-11-24T04:17:47.257Z,19.83
2022-11-24T04:18:53.081Z,20.15
2022-11-24T04:19:55.838Z,20.50
2022-11-24T04:20:58.538Z,21.70
2022-11-24T04:22:01.134Z,20.52
2022-11-24T04:23:04.752Z,21.45
2022-11-24T04:24:08.110Z,21.40
2022-11-24T04:25:11.558Z,21.25
2022-11-24T04:26:14.539Z,21.23
2022-11-24T04:27:17.385Z,19.83
2022-11-24T04:28:20.335Z,19.83
2022-11-24T04:29:23.397Z,21.17
2022-11-24T04:30:28.168Z,20.48
2022-11-24T04:31:30.937Z,20.83
2022-11-24T04:32:33.676Z,20.40
2022-11-24T04:33:36.454Z,21.17
2022-11-24T04:34:39.131Z,21.75
2022-11-24T04:35:41.971Z,21.25
2022-11-24T04:36:44.676Z,22.70
2022-11-24T04:37:47.607Z,21.83
2022-11-24T04:39:19.500Z,22.50
2022-11-24T04:40:16.257Z,23.30
2022-11-24T04:41:19.086Z,23.75
2022-11-24T04:42:21.973Z,21.58
2022-11-24T04:43:24.819Z,22.55
2022-11-24T04:44:27.549Z,22.92
2022-11-24T04:45:30.491Z,23.30
2022-11-24T04:46:33.236Z,22.58
2022-11-24T04:47:36.204Z,25.00
2022-11-24T04:48:42.210Z,26.87
2022-11-24T04:49:47.202Z,25.37
2022-11-24T04:50:50.079Z,25.30
2022-11-24T04:51:52.933Z,24.27
2022-11-24T04:52:55.939Z,25.70
2022-11-24T04:53:58.593Z,24.73
2022-11-24T04:55:01.615Z,26.30
2022-11-24T04:56:06.495Z,26.48
2022-11-24T04:57:16.841Z,24.25
2022-11-24T04:58:20.253Z,25.50
2022-11-24T04:59:23.025Z,25.95
2022-11-24T05:00:25.777Z,25.08
2022-11-24T05:01:29.271Z,26.85
2022-11-24T05:02:31.959Z,26.48
2022-11-24T05:03:36.222Z,26.30
2022-11-24T05:04:39.271Z,25.37
2022-11-24T05:05:41.890Z,27.10
2022-11-24T05:06:44.835Z,23.67
2022-11-24T05:07:47.698Z,25.70
2022-11-24T05:08:52.328Z,24.20
2022-11-24T05:10:13.981Z,24.92
2022-11-24T05:11:16.961Z,26.77
2022-11-24T05:12:19.700Z,25.05
2022-11-24T05:13:22.453Z,24.87
2022-11-24T05:14:25.361Z,25.95
2022-11-24T05:15:28.956Z,26.10
2022-11-24T05:16:32.235Z,24.83
2022-11-24T05:17:37.956Z,22.92
2022-11-24T05:18:40.719Z,26.35
2022-11-24T05:19:43.422Z,24.27
2022-11-24T05:20:46.574Z,24.77
2022-11-24T05:21:49.331Z,23.77
2022-11-24T05:22:52.065Z,24.25
2022-11-24T05:23:54.749Z,23.73
2022-11-24T05:24:58.241Z,24.58
2022-11-24T05:26:01.743Z,23.73
2022-11-24T05:27:04.534Z,23.17
2022-11-24T05:28:11.832Z,22.70
2022-11-24T05:29:14.639Z,23.73
2022-11-24T05:30:17.647Z,23.92
2022-11-24T05:31:23.912Z,24.45
2022-11-24T05:32:26.781Z,23.77
2022-11-24T05:33:30.516Z,23.70
2022-11-24T05:34:33.813Z,23.50
2022-11-24T05:35:36.894Z,24.85
2022-11-24T05:36:56.454Z,24.85
2022-11-24T05:37:59.439Z,23.62
2022-11-24T05:39:02.275Z,23.58
2022-11-24T05:40:07.087Z,23.62
2022-11-24T05:41:09.813Z,22.80
2022-11-24T05:42:31.661Z,23.95
2022-11-24T05:43:35.122Z,23.08
2022-11-24T05:44:37.862Z,23.48
2022-11-24T05:45:40.660Z,23.45
2022-11-24T05:46:43.641Z,22.45
2022-11-24T05:47:47.446Z,21.90
2022-11-24T05:48:50.247Z,21.73
2022-11-24T05:49:53.361Z,21.42
2022-11-24T05:50:57.700Z,22.17
2022-11-24T05:52:00.586Z,20.42
2022-11-24T05:53:13.978Z,20.98
2022-11-24T05:54:16.776Z,19.05
2022-11-24T05:55:19.760Z,20.48
2022-11-24T05:56:22.876Z,19.60
2022-11-24T05:57:25.701Z,19.25
2022-11-24T05:58:31.334Z,19.08
2022-11-24T05:59:34.260Z,19.73
2022-11-24T06:00:37.754Z,19.33
2022-11-24T06:01:40.704Z,20.60
2022-11-24T06:02:43.751Z,19.62
2022-11-24T06:03:46.625Z,20.02
2022-11-24T06:04:49.422Z,19.52
2022-11-24T06:05:52.209Z,18.37
2022-11-24T06:06:55.119Z,18.27
2022-11-24T06:07:59.409Z,18.15
2022-11-24T06:09:02.584Z,18.52
2022-11-24T06:10:05.866Z,16.90
2022-11-24T06:11:18.551Z,18.92
2022-11-24T06:12:21.573Z,17.58
2022-11-24T06:13:24.483Z,18.17
2022-11-24T06:14:27.525Z,17.70
2022-11-24T06:15:30.246Z,17.12
2022-11-24T06:16:33.526Z,17.33
2022-11-24T06:17:36.404Z,16.90
2022-11-24T06:18:39.655Z,16.85
2022-11-24T06:19:45.819Z,18.27
2022-11-24T06:21:09.757Z,17.77
2022-11-24T06:22:12.936Z,16.80
2022-11-24T06:23:20.122Z,17.75
2022-11-24T06:24:22.888Z,18.60
2022-11-24T06:25:26.528Z,18.25
2022-11-24T06:26:29.434Z,17.05
2022-11-24T06:27:32.591Z,17.80
2022-11-24T06:28:36.823Z,17.08
2022-11-24T06:29:39.688Z,17.08
2022-11-24T06:30:42.465Z,17.90
2022-11-24T06:31:45.292Z,19.00
2022-11-24T06:32:51.698Z,19.25
2022-11-24T06:33:54.667Z,18.25
2022-11-24T06:34:57.817Z,18.60
2022-11-24T06:36:07.390Z,17.60
2022-11-24T06:37:10.445Z,18.50
2022-11-24T06:38:13.340Z,17.95
2022-11-24T06:39:16.139Z,17.90
2022-11-24T06:40:19.088Z,17.40
2022-11-24T06:41:21.877Z,18.12
2022-11-24T06:42:24.814Z,19.37
2022-11-24T06:43:29.563Z,18.35
2022-11-24T06:44:32.785Z,17.80
2022-11-24T06:45:36.195Z,18.50
2022-11-24T06:46:39.600Z,17.67
2022-11-24T06:47:42.396Z,19.73
2022-11-24T06:48:45.407Z,19.62
2022-11-24T06:49:48.146Z,19.30
2022-11-24T06:50:52.028Z,18.90
2022-11-24T06:51:55.407Z,21.20
2022-11-24T06:52:58.320Z,20.85
2022-11-24T06:54:01.880Z,19.27
2022-11-24T06:55:05.076Z,19.60
2022-11-24T06:56:16.150Z,20.62
2022-11-24T06:58:22.853Z,18.58
2022-11-24T06:59:26.770Z,20.23
2022-11-24T07:00:32.274Z,20.08
2022-11-24T07:01:35.022Z,19.30
2022-11-24T07:02:42.491Z,20.98
2022-11-24T07:03:49.927Z,20.62
2022-11-24T07:04:52.712Z,19.75
2022-11-24T07:05:59.037Z,20.92
2022-11-24T07:07:03.190Z,19.52
2022-11-24T07:08:06.212Z,19.92
2022-11-24T07:09:15.869Z,18.83
2022-11-24T07:10:19.019Z,19.83
2022-11-24T07:11:24.425Z,22.33
2022-11-24T07:12:27.474Z,20.48
2022-11-24T07:13:30.244Z,19.65
2022-11-24T07:14:33.706Z,19.35
2022-11-24T07:15:36.878Z,19.55
2022-11-24T07:16:40.119Z,18.27
2022-11-24T07:17:42.909Z,17.62
2022-11-24T07:18:47.874Z,18.62
2022-11-24T07:19:50.613Z,19.92
2022-11-24T07:20:53.484Z,17.92
2022-11-24T07:21:56.732Z,19.67
2022-11-24T07:22:59.848Z,19.05
2022-11-24T07:24:02.627Z,18.25
2022-11-24T07:25:07.614Z,18.85
2022-11-24T07:26:12.536Z,17.62
2022-11-24T07:27:15.356Z,18.02
2022-11-24T07:28:18.288Z,18.65
2022-11-24T07:29:21.256Z,19.87
2022-11-24T07:30:24.736Z,20.35
2022-11-24T07:31:27.698Z,19.75
2022-11-24T07:32:30.946Z,18.62
2022-11-24T07:33:34.204Z,19.92
2022-11-24T07:34:37.242Z,18.70
2022-11-24T07:35:40.142Z,19.30
2022-11-24T07:36:43.255Z,16.80
2022-11-24T07:37:45.919Z,18.40
2022-11-24T07:38:49.351Z,17.98
2022-11-24T07:39:52.130Z,17.45
2022-11-24T07:40:54.937Z,18.77
2022-11-24T07:42:00.570Z,18.25
2022-11-24T07:43:03.692Z,17.58
2022-11-24T07:44:06.681Z,17.67
2022-11-24T07:45:09.934Z,18.10
2022-11-24T07:46:15.874Z,18.25
2022-11-24T07:47:18.715Z,19.23
2022-11-24T07:48:23.287Z,18.67
2022-11-24T07:49:26.014Z,18.62
2022-11-24T07:50:29.068Z,18.90
2022-11-24T07:51:31.862Z,20.00
2022-11-24T07:52:34.807Z,19.20
2022-11-24T07:53:38.583Z,19.27
2022-11-24T07:54:41.398Z,20.00
2022-11-24T07:55:44.298Z,18.75
2022-11-24T07:56:50.156Z,19.80
2022-11-24T07:57:52.916Z,19.98
2022-11-24T07:58:55.718Z,19.55
2022-11-24T07:59:58.510Z,19.42
2022-11-24T08:01:16.572Z,19.80
2022-11-24T08:02:19.854Z,19.25
2022-11-24T08:03:24.122Z,18.87
2022-11-24T08:04:27.351Z,18.73
2022-11-24T08:05:31.144Z,19.90
2022-11-24T08:06:39.734Z,18.35
2022-11-24T08:07:46.113Z,17.92
2022-11-24T08:08:49.166Z,20.50
2022-11-24T08:09:52.403Z,19.98
2022-11-24T08:10:55.172Z,19.75
2022-11-24T08:11:57.891Z,18.77
2022-11-24T08:13:01.956Z,18.85
2022-11-24T08:14:04.754Z,13.68
2022-11-24T08:15:11.985Z,20.00
2022-11-24T08:16:17.536Z,19.58
2022-11-24T08:17:20.649Z,19.60
2022-11-24T08:18:24.919Z,19.40
2022-11-24T08:19:27.805Z,18.90
2022-11-24T08:20:30.782Z,21.60
2022-11-24T08:21:33.612Z,21.25
2022-11-24T08:22:36.397Z,20.67
2022-11-24T08:23:39.587Z,20.10
2022-11-24T08:24:47.338Z,19.12
2022-11-24T08:25:56.988Z,19.60
2022-11-24T08:26:59.996Z,17.15
2022-11-24T08:28:04.640Z,21.83
2022-11-24T08:29:08.150Z,20.75
2022-11-24T08:30:14.953Z,21.90
2022-11-24T08:31:19.345Z,23.08
2022-11-24T08:32:23.955Z,21.50
2022-11-24T08:33:26.691Z,20.65
2022-11-24T08:34:29.698Z,20.42
2022-11-24T08:35:35.749Z,20.52
2022-11-24T08:36:38.457Z,19.48
2022-11-24T08:37:41.306Z,22.08
2022-11-24T08:38:45.977Z,20.52
2022-11-24T08:39:49.023Z,19.80
2022-11-24T08:40:51.816Z,21.00
2022-11-24T08:41:54.584Z,19.55
2022-11-24T08:42:59.261Z,20.73
2022-11-24T08:44:01.958Z,20.85
2022-11-24T08:45:20.004Z,21.45
2022-11-24T08:46:24.615Z,19.85
2022-11-24T08:47:27.383Z,21.15
2022-11-24T08:48:30.745Z,20.75
2022-11-24T08:49:33.489Z,20.05
2022-11-24T08:50:37.721Z,19.92
2022-11-24T08:51:41.119Z,20.35
2022-11-24T08:52:44.040Z,21.15
2022-11-24T08:53:46.995Z,19.42
2022-11-24T08:54:50.589Z,18.73
2022-11-24T08:55:53.432Z,20.20
2022-11-24T08:56:56.260Z,18.83
2022-11-24T08:57:59.057Z,20.05
2022-11-24T08:59:02.875Z,22.25
2022-11-24T09:00:06.512Z,20.92
2022-11-24T09:01:15.883Z,21.23
2022-11-24T09:02:19.432Z,19.27
2022-11-24T09:03:22.379Z,20.00
2022-11-24T09:04:25.098Z,20.52
2022-11-24T09:06:50.819Z,19.55
2022-11-24T09:07:53.826Z,18.90
2022-11-24T09:08:57.933Z,19.37
2022-11-24T09:10:00.893Z,18.75
2022-11-24T09:11:09.304Z,18.48
2022-11-24T09:12:14.606Z,18.92
2022-11-24T09:13:17.947Z,18.73
2022-11-24T09:14:20.898Z,18.80
2022-11-24T09:15:23.729Z,19.95
2022-11-24T09:16:29.162Z,18.05
2022-11-24T09:17:33.070Z,17.90
2022-11-24T09:18:36.468Z,17.62
2022-11-24T09:19:42.422Z,19.55
2022-11-24T09:20:45.508Z,18.70
2022-11-24T09:21:49.123Z,18.62
2022-11-24T09:22:52.019Z,18.45
2022-11-24T09:23:56.057Z,18.52
2022-11-24T09:24:58.823Z,18.15
2022-11-24T09:26:10.369Z,17.92
2022-11-24T09:27:16.748Z,19.00
2022-11-24T09:28:19.676Z,16.08
2022-11-24T09:29:22.525Z,18.25
2022-11-24T09:30:25.265Z,18.10
2022-11-24T09:31:31.437Z,17.33
2022-11-24T09:32:34.432Z,17.65
2022-11-24T09:33:37.861Z,17.50
2022-11-24T09:34:40.635Z,17.42
2022-11-24T09:35:43.423Z,19.25
2022-11-24T09:36:49.735Z,18.02
2022-11-24T09:37:52.618Z,18.70
2022-11-24T09:38:55.977Z,16.98
2022-11-24T09:39:58.668Z,18.30
2022-11-24T09:41:27.655Z,19.15
2022-11-24T09:42:46.994Z,17.02
2022-11-24T09:44:34.151Z,18.35
2022-11-24T09:46:07.686Z,16.92
2022-11-24T09:47:23.068Z,17.25
2022-11-24T09:48:44.649Z,18.20
2022-11-24T09:49:59.331Z,18.05
2022-11-24T09:51:04.624Z,19.33
2022-11-24T09:52:15.197Z,18.48
2022-11-24T09:53:44.882Z,19.17
2022-11-24T09:55:00.710Z,18.70
2022-11-24T09:56:14.862Z,18.75
2022-11-24T09:57:21.350Z,18.62
2022-11-24T09:58:53.900Z,19.77
2022-11-24T10:00:03.757Z,20.15
2022-11-24T10:01:22.120Z,18.67
2022-11-24T10:02:26.009Z,19.12
2022-11-24T10:03:43.655Z,18.58
2022-11-24T10:04:47.613Z,18.55
2022-11-24T10:05:51.714Z,19.52
2022-11-24T10:07:30.808Z,19.25
2022-11-24T10:08:51.916Z,18.02
2022-11-24T10:10:08.837Z,17.83
2022-11-24T10:11:16.950Z,19.50
2022-11-24T10:12:39.835Z,19.05
2022-11-24T10:14:19.764Z,17.17
2022-11-24T10:16:00.343Z,17.40
2022-11-24T10:17:23.677Z,17.02
2022-11-24T10:18:44.796Z,18.02
2022-11-24T10:20:06.744Z,17.27
2022-11-24T10:21:52.372Z,19.25
2022-11-24T10:23:38.398Z,16.83
2022-11-24T10:25:09.447Z,17.95
2022-11-24T10:26:33.406Z,16.65
2022-11-24T10:27:42.306Z,17.77
2022-11-24T10:28:55.703Z,15.77
2022-11-24T10:30:00.736Z,15.27
2022-11-24T10:31:23.684Z,15.90
2022-11-24T10:32:44.255Z,16.73
2022-11-24T10:33:47.995Z,15.52
2022-11-24T10:34:50.940Z,16.35
2022-11-24T10:36:04.458Z,16.55
2022-11-24T10:37:26.021Z,17.30
2022-11-24T10:39:07.815Z,16.33
2022-11-24T10:40:56.007Z,17.95
2022-11-24T10:42:23.635Z,16.17
2022-11-24T10:43:28.322Z,16.30
2022-11-24T10:44:34.257Z,18.37
2022-11-24T10:45:39.557Z,15.80
2022-11-24T10:46:42.874Z,17.02
2022-11-24T10:47:47.622Z,16.27
2022-11-24T10:48:53.935Z,16.35
2022-11-24T10:50:24.439Z,16.35
2022-11-24T10:51:49.160Z,16.35
2022-11-24T10:52:56.829Z,15.63
2022-11-24T10:54:21.170Z,15.10
2022-11-24T10:55:24.899Z,15.68
2022-11-24T10:56:27.931Z,15.85
2022-11-24T10:57:32.606Z,16.50
2022-11-24T10:58:38.686Z,16.83
2022-11-24T10:59:41.558Z,16.23
2022-11-24T11:00:44.424Z,16.20
2022-11-24T11:01:47.376Z,16.25
2022-11-24T11:02:58.531Z,16.20
2022-11-24T11:04:01.822Z,15.30
2022-11-24T11:06:09.353Z,15.85
2022-11-24T11:07:25.404Z,15.23
2022-11-24T11:08:30.647Z,14.60
2022-11-24T11:09:33.692Z,14.48
2022-11-24T11:10:36.789Z,16.12
2022-11-24T11:11:40.197Z,15.13
2022-11-24T11:12:44.594Z,14.63
2022-11-24T11:14:02.894Z,15.65
2022-11-24T11:15:25.961Z,14.15
2022-11-24T11:16:37.350Z,12.82
2022-11-24T11:17:44.680Z,13.75
2022-11-24T11:18:49.754Z,13.68
2022-11-24T11:20:01.438Z,13.57
2022-11-24T11:21:05.747Z,14.52
2022-11-24T11:22:11.496Z,13.68
2022-11-24T11:23:42.023Z,14.30
2022-11-24T11:24:47.489Z,13.43
2022-11-24T11:25:50.325Z,14.75
2022-11-24T11:27:03.964Z,12.48
2022-11-24T11:28:30.354Z,13.07
2022-11-24T11:34:20.528Z,12.05
2022-11-24T11:35:29.090Z,13.38
2022-11-24T11:36:33.387Z,10.90
2022-11-24T11:37:36.236Z,12.90
2022-11-24T11:38:40.793Z,12.30
2022-11-24T11:39:49.077Z,11.85
2022-11-24T11:40:52.775Z,12.02
2022-11-24T11:42:01.729Z,11.77
2022-11-24T11:43:31.848Z,13.05
2022-11-24T11:45:01.213Z,11.98
2022-11-24T11:46:10.063Z,11.15
2022-11-24T11:47:25.668Z,11.18
2022-11-24T11:48:43.707Z,11.82
2022-11-24T11:49:49.488Z,11.57
2022-11-24T11:51:27.474Z,11.15
2022-11-24T11:52:42.267Z,12.18
2022-11-24T11:54:12.496Z,11.10
2022-11-24T11:55:27.325Z,12.48
2022-11-24T11:56:49.500Z,10.82
2022-11-24T11:58:24.305Z,11.05
2022-11-24T11:59:51.245Z,11.10
2022-11-24T12:01:34.248Z,11.05
2022-11-24T12:02:46.114Z,10.25
2022-11-24T12:04:13.953Z,10.15
2022-11-24T12:05:30.809Z,9.65
2022-11-24T12:06:42.417Z,11.02
2022-11-24T12:09:32.809Z,10.90
2022-11-24T12:10:39.473Z,10.07
2022-11-24T12:12:21.503Z,9.90
2022-11-24T12:13:38.849Z,10.15
2022-11-24T12:15:10.796Z,10.13
2022-11-24T12:16:48.551Z,9.77
2022-11-24T12:18:40.232Z,10.32
2022-11-24T12:20:01.398Z,9.57
2022-11-24T12:21:39.519Z,9.70
2022-11-24T12:23:03.133Z,9.95
2022-11-24T12:24:32.572Z,10.10
2022-11-24T12:25:42.170Z,9.45
2022-11-24T12:26:54.174Z,10.52
2022-11-24T12:28:30.321Z,10.65
2022-11-24T12:29:53.587Z,10.50
2022-11-24T12:31:07.225Z,10.23
2022-11-24T12:32:39.160Z,10.40
2022-11-24T12:34:00.826Z,9.95
2022-11-24T12:35:09.778Z,10.70
2022-11-24T12:36:45.816Z,10.90
2022-11-24T12:38:22.712Z,11.07
2022-11-24T12:39:34.905Z,10.50
2022-11-24T12:41:25.604Z,10.05
2022-11-24T12:43:02.810Z,10.25
2022-11-24T12:44:21.086Z,10.77
2022-11-24T12:45:42.650Z,9.75
2022-11-24T12:47:03.957Z,9.98
2022-11-24T12:48:36.537Z,10.98
2022-11-24T12:50:10.760Z,9.50
2022-11-24T12:51:24.620Z,10.60
2022-11-24T12:52:36.299Z,9.50
2022-11-24T12:54:42.119Z,10.68
2022-11-24T12:55:46.411Z,10.65
2022-11-24T12:57:05.910Z,10.40
2022-11-24T12:58:32.195Z,10.27
2022-11-24T12:59:59.710Z,10.07
2022-11-24T13:01:25.527Z,10.43
2022-11-24T13:02:47.672Z,9.57
2022-11-24T13:04:28.638Z,10.13
2022-11-24T13:05:36.747Z,9.55
2022-11-24T13:07:00.841Z,9.65
2022-11-24T13:08:05.588Z,9.70
2022-11-24T13:09:10.677Z,8.88
2022-11-24T13:10:58.558Z,9.65
2022-11-24T13:11:55.824Z,9.93
2022-11-24T13:13:13.237Z,9.63
2022-11-24T13:14:34.683Z,9.35
2022-11-24T13:17:36.310Z,9.65
2022-11-24T13:18:57.685Z,10.10
2022-11-24T13:20:21.770Z,9.77
2022-11-24T13:21:52.026Z,8.82
2022-11-24T13:23:03.620Z,9.95
2022-11-24T13:24:19.343Z,9.38
2022-11-24T13:25:29.760Z,9.85
2022-11-24T13:26:41.506Z,10.48
2022-11-24T13:27:48.384Z,10.05
2022-11-24T13:29:12.978Z,9.57
2022-11-24T13:30:33.914Z,9.27
2022-11-24T13:31:36.964Z,11.12
2022-11-24T13:32:39.916Z,9.73
2022-11-24T13:33:43.052Z,10.77
2022-11-24T13:34:46.036Z,10.65
2022-11-24T13:36:08.112Z,9.57
2022-11-24T13:37:32.056Z,11.27
2022-11-24T13:38:47.049Z,11.40
2022-11-24T13:39:53.382Z,9.00
2022-11-24T13:41:13.506Z,10.32
2022-11-24T13:42:43.972Z,9.73
2022-11-24T13:44:15.570Z,10.23
2022-11-24T13:45:40.356Z,9.88
2022-11-24T13:47:01.738Z,10.60
2022-11-24T13:48:21.693Z,9.70
2022-11-24T13:49:37.340Z,10.45
2022-11-24T13:51:09.133Z,10.30
2022-11-24T13:52:39.809Z,10.25
2022-11-24T13:53:50.746Z,9.23
2022-11-24T13:54:53.581Z,10.57
2022-11-24T13:56:06.077Z,9.35
2022-11-24T13:57:39.514Z,9.73
2022-11-24T13:58:44.979Z,8.40
2022-11-24T13:59:50.996Z,9.82
2022-11-24T14:01:07.149Z,10.25
2022-11-24T14:02:24.229Z,10.10
2022-11-24T14:03:31.728Z,9.52
2022-11-24T14:04:39.713Z,9.63
2022-11-24T14:05:49.305Z,9.48
2022-11-24T14:06:52.071Z,10.13
2022-11-24T14:07:55.058Z,10.30
2022-11-24T14:09:06.955Z,9.93
2022-11-24T14:10:23.069Z,10.02
2022-11-24T14:11:28.842Z,9.43
2022-11-24T14:12:34.025Z,10.10
2022-11-24T14:13:37.040Z,10.23
2022-11-24T14:14:40.628Z,10.07
2022-11-24T14:15:43.703Z,9.70
2022-11-24T14:16:46.763Z,10.20
2022-11-24T14:17:49.686Z,9.80
2022-11-24T14:18:52.703Z,10.07
2022-11-24T14:19:57.340Z,9.13
2022-11-24T14:21:16.446Z,8.93
2022-11-24T14:22:27.057Z,9.77
2022-11-24T14:23:29.908Z,9.70
2022-11-24T14:24:38.245Z,10.15
2022-11-24T14:25:49.674Z,9.60
2022-11-24T14:26:52.990Z,10.50
2022-11-24T14:27:56.559Z,10.55
2022-11-24T14:29:16.911Z,10.95
2022-11-24T14:30:23.275Z,10.25
2022-11-24T14:31:27.398Z,9.38
2022-11-24T14:32:30.643Z,9.75
2022-11-24T14:33:33.569Z,9.77
2022-11-24T14:34:36.534Z,10.90
2022-11-24T14:35:44.920Z,9.68
2022-11-24T14:36:51.778Z,9.93
2022-11-24T14:37:55.005Z,9.65
2022-11-24T14:38:57.834Z,10.57
2022-11-24T14:40:00.725Z,9.20
2022-11-24T14:41:16.818Z,8.88
2022-11-24T14:42:25.732Z,10.07
2022-11-24T14:43:33.294Z,10.57
2022-11-24T14:44:42.164Z,9.60
2022-11-24T14:45:54.147Z,11.02
2022-11-24T14:47:14.248Z,9.38
2022-11-24T14:48:20.877Z,10.07
2022-11-24T14:49:24.001Z,10.07
2022-11-24T14:50:27.045Z,10.30
2022-11-24T14:51:34.329Z,10.43
2022-11-24T14:52:50.440Z,10.88
2022-11-24T14:54:06.631Z,10.13
2022-11-24T14:55:25.736Z,10.68